createdAt,value
2022-12-11T00:01:11.425Z,18.80
2022-12-11T00:04:15.913Z,18.37
2022-12-11T00:07:18.973Z,18.20
2022-12-11T00:10:22.427Z,17.90
2022-12-11T00:13:25.362Z,16.93
2022-12-11T00:16:28.357Z,17.90
2022-12-11T00:19:32.891Z,16.93
2022-12-11T00:22:36.069Z,18.77
2022-12-11T00:25:43.874Z,17.83
2022-12-11T00:28:47.038Z,16.90
2022-12-11T00:31:50.348Z,17.47
2022-12-11T00:34:54.832Z,17.47
2022-12-11T00:37:57.830Z,18.27
2022-12-11T00:41:00.993Z,17.83
2022-12-11T00:44:04.667Z,16.13
2022-12-11T00:47:08.567Z,17.87
2022-12-11T00:50:13.113Z,17.70
2022-12-11T00:53:16.180Z,17.27
2022-12-11T00:56:22.981Z,16.87
2022-12-11T00:59:26.322Z,17.17
2022-12-11T01:02:29.341Z,15.47
2022-12-11T01:05:34.103Z,18.33
2022-12-11T01:08:38.896Z,17.73
2022-12-11T01:11:43.811Z,17.30
2022-12-11T01:14:47.222Z,18.00
2022-12-11T01:17:52.437Z,17.90
2022-12-11T01:20:56.710Z,16.63
2022-12-11T01:23:59.684Z,16.43
2022-12-11T01:27:02.702Z,16.80
2022-12-11T01:30:09.003Z,16.80
2022-12-11T01:33:12.296Z,18.77
2022-12-11T01:36:19.407Z,17.63
2022-12-11T01:39:23.696Z,17.03
2022-12-11T01:42:27.576Z,16.87
2022-12-11T01:45:39.298Z,17.63
2022-12-11T01:48:42.527Z,16.93
2022-12-11T01:51:52.361Z,17.17
2022-12-11T01:54:55.357Z,17.10
2022-12-11T01:57:58.417Z,16.90
2022-12-11T02:01:03.088Z,18.23
2022-12-11T02:04:07.799Z,17.90
2022-12-11T02:07:12.454Z,18.60
2022-12-11T02:10:15.956Z,18.80
2022-12-11T02:13:30.274Z,18.23
2022-12-11T02:16:43.922Z,18.50
2022-12-11T02:20:00.834Z,17.17
2022-12-11T02:23:39.523Z,17.20
2022-12-11T02:27:03.865Z,18.90
2022-12-11T02:30:13.835Z,17.50
2022-12-11T02:33:21.538Z,17.47
2022-12-11T02:36:27.686Z,18.03
2022-12-11T02:39:31.964Z,17.83
2022-12-11T02:42:36.259Z,18.90
2022-12-11T02:45:42.860Z,17.97
2022-12-11T02:48:49.544Z,17.70
2022-12-11T02:51:54.726Z,18.47
2022-12-11T02:55:02.399Z,18.00
2022-12-11T02:58:12.957Z,17.53
2022-12-11T03:01:19.923Z,18.93
2022-12-11T03:04:24.925Z,20.57
2022-12-11T03:07:34.294Z,18.17
2022-12-11T03:10:37.245Z,19.30
2022-12-11T03:13:42.529Z,19.70
2022-12-11T03:16:56.424Z,18.13
2022-12-11T03:20:09.147Z,18.80
2022-12-11T03:23:22.347Z,19.73
2022-12-11T03:26:26.705Z,19.97
2022-12-11T03:29:36.199Z,19.00
2022-12-11T03:32:47.510Z,18.60
2022-12-11T03:35:57.031Z,18.13
2022-12-11T03:39:04.905Z,18.77
2022-12-11T03:42:11.560Z,18.87
2022-12-11T03:45:16.251Z,18.43
2022-12-11T03:48:22.692Z,18.33
2022-12-11T03:51:26.941Z,18.43
2022-12-11T03:54:31.026Z,18.83
2022-12-11T03:57:37.910Z,18.10
2022-12-11T04:00:40.912Z,18.90
2022-12-11T04:03:45.212Z,18.40
2022-12-11T04:06:48.204Z,19.03
2022-12-11T04:09:51.219Z,18.30
2022-12-11T04:12:54.184Z,17.17
2022-12-11T04:15:56.242Z,19.43
2022-12-11T04:19:18.338Z,18.83
2022-12-11T04:22:41.570Z,18.20
2022-12-11T04:25:44.687Z,18.30
2022-12-11T04:28:49.194Z,17.70
2022-12-11T04:31:52.478Z,18.63
2022-12-11T04:34:56.816Z,18.50
2022-12-11T04:37:59.869Z,18.40
2022-12-11T04:41:06.043Z,18.07
2022-12-11T04:44:09.288Z,18.67
2022-12-11T04:47:12.408Z,19.80
2022-12-11T04:50:17.689Z,19.30
2022-12-11T04:53:20.685Z,19.77
2022-12-11T04:56:23.769Z,19.53
2022-12-11T04:59:26.748Z,19.67
2022-12-11T05:02:30.273Z,19.17
2022-12-11T05:05:34.784Z,20.13
2022-12-11T05:08:41.121Z,19.87
2022-12-11T05:11:44.592Z,18.07
2022-12-11T05:14:47.549Z,19.83
2022-12-11T05:17:50.758Z,18.33
2022-12-11T05:21:00.125Z,20.43
2022-12-11T05:24:03.124Z,20.03
2022-12-11T05:27:06.118Z,19.60
2022-12-11T05:30:11.152Z,19.63
2022-12-11T05:33:14.266Z,20.53
2022-12-11T05:36:22.427Z,20.47
2022-12-11T05:39:28.001Z,19.37
2022-12-11T05:42:30.994Z,21.17
2022-12-11T05:45:34.097Z,19.30
2022-12-11T05:48:38.688Z,19.13
2022-12-11T05:51:43.756Z,20.37
2022-12-11T05:54:50.187Z,20.07
2022-12-11T05:57:53.157Z,21.10
2022-12-11T06:00:56.226Z,21.27
2022-12-11T06:04:03.746Z,19.03
2022-12-11T06:07:08.186Z,17.40
2022-12-11T06:10:11.658Z,18.23
2022-12-11T06:13:15.486Z,18.20
2022-12-11T06:16:18.607Z,19.27
2022-12-11T06:19:22.458Z,18.07
2022-12-11T06:22:26.778Z,17.43
2022-12-11T06:25:30.991Z,17.80
2022-12-11T06:28:34.016Z,15.77
2022-12-11T06:31:37.030Z,16.40
2022-12-11T06:34:40.031Z,15.77
2022-12-11T06:37:44.698Z,16.40
2022-12-11T06:40:47.743Z,16.90
2022-12-11T06:43:51.134Z,17.50
2022-12-11T06:46:54.092Z,17.37
2022-12-11T06:49:57.468Z,17.00
2022-12-11T06:53:01.754Z,15.93
2022-12-11T06:56:06.582Z,17.50
2022-12-11T06:59:12.779Z,15.50
2022-12-11T07:02:16.593Z,16.67
2022-12-11T07:05:19.820Z,16.10
2022-12-11T07:08:24.105Z,17.23
2022-12-11T07:11:27.386Z,15.70
2022-12-11T07:14:30.479Z,17.83
2022-12-11T07:17:33.572Z,15.97
2022-12-11T07:20:36.925Z,16.83
2022-12-11T07:23:42.355Z,15.37
2022-12-11T07:26:45.728Z,17.87
2022-12-11T07:29:48.716Z,17.17
2022-12-11T07:32:53.727Z,16.97
2022-12-11T07:35:56.676Z,17.27
2022-12-11T07:39:02.068Z,17.53
2022-12-11T07:42:05.185Z,16.70
2022-12-11T07:45:09.427Z,14.87
2022-12-11T07:48:12.913Z,13.50
2022-12-11T07:51:19.289Z,14.33
2022-12-11T07:54:23.975Z,14.80
2022-12-11T07:57:29.811Z,15.07
2022-12-11T08:00:32.955Z,15.07
2022-12-11T08:03:36.097Z,15.53
2022-12-11T08:06:41.065Z,15.37
2022-12-11T08:09:45.564Z,18.97
2022-12-11T08:12:48.904Z,18.47
2022-12-11T08:15:54.781Z,21.23
2022-12-11T08:19:08.654Z,19.07
2022-12-11T08:22:11.775Z,15.63
2022-12-11T08:25:16.185Z,14.97
2022-12-11T08:28:19.150Z,15.30
2022-12-11T08:31:24.316Z,13.33
2022-12-11T08:34:27.749Z,15.83
2022-12-11T08:37:30.840Z,13.87
2022-12-11T08:40:35.279Z,15.60
2022-12-11T08:43:38.896Z,16.40
2022-12-11T08:46:42.607Z,15.63
2022-12-11T08:49:46.280Z,15.20
2022-12-11T08:52:49.274Z,14.90
2022-12-11T08:55:53.549Z,14.87
2022-12-11T08:58:56.841Z,15.17
2022-12-11T09:02:01.364Z,14.53
2022-12-11T09:05:07.680Z,14.20
2022-12-11T09:08:10.806Z,14.23
2022-12-11T09:11:20.796Z,13.80
2022-12-11T09:14:24.015Z,14.43
2022-12-11T09:17:27.072Z,16.77
2022-12-11T09:20:30.146Z,16.50
2022-12-11T09:23:33.212Z,16.53
2022-12-11T09:26:41.080Z,14.37
2022-12-11T09:29:44.020Z,16.23
2022-12-11T09:32:47.112Z,15.97
2022-12-11T09:35:59.038Z,14.97
2022-12-11T09:39:03.736Z,14.23
2022-12-11T09:42:16.848Z,15.67
2022-12-11T09:45:20.284Z,14.60
2022-12-11T09:48:26.720Z,15.53
2022-12-11T09:51:35.984Z,15.67
2022-12-11T09:54:45.025Z,15.97
2022-12-11T09:57:58.843Z,17.40
2022-12-11T10:01:10.732Z,15.03
2022-12-11T10:04:38.306Z,14.97
2022-12-11T10:07:50.345Z,16.87
2022-12-11T10:11:07.062Z,16.90
2022-12-11T10:14:20.938Z,15.27
2022-12-11T10:17:31.858Z,16.27
2022-12-11T10:20:43.152Z,16.13
2022-12-11T10:23:58.509Z,15.73
2022-12-11T10:27:15.937Z,15.93
2022-12-11T10:30:24.460Z,15.87
2022-12-11T10:33:49.501Z,16.37
2022-12-11T10:37:00.321Z,16.10
2022-12-11T10:40:04.095Z,15.17
2022-12-11T10:43:07.086Z,15.23
2022-12-11T10:46:23.899Z,16.07
2022-12-11T10:49:30.048Z,15.10
2022-12-11T10:52:38.023Z,15.97
2022-12-11T10:55:46.070Z,15.83
2022-12-11T10:58:51.602Z,15.70
2022-12-11T11:01:56.042Z,16.00
2022-12-11T11:05:02.023Z,15.97
2022-12-11T11:08:15.118Z,15.13
2022-12-11T11:11:29.220Z,15.37
2022-12-11T11:14:34.975Z,16.27
2022-12-11T11:17:54.645Z,14.67
2022-12-11T11:20:59.152Z,15.40
2022-12-11T11:24:02.325Z,15.57
2022-12-11T11:27:14.504Z,15.00
2022-12-11T11:30:22.065Z,15.77
2022-12-11T11:33:26.515Z,14.83
2022-12-11T11:36:31.839Z,16.57
2022-12-11T11:39:41.505Z,15.33
2022-12-11T11:42:53.442Z,14.77
2022-12-11T11:46:00.975Z,15.80
2022-12-11T11:49:15.882Z,16.67
2022-12-11T11:52:26.156Z,15.93
2022-12-11T11:55:42.512Z,16.53
2022-12-11T11:58:48.956Z,14.83
2022-12-11T12:01:55.412Z,15.00
2022-12-11T12:04:59.703Z,13.70
2022-12-11T12:08:14.816Z,15.37
2022-12-11T12:11:31.371Z,14.60
2022-12-11T12:14:57.790Z,14.37
2022-12-11T12:18:15.171Z,15.00
2022-12-11T12:21:30.084Z,15.50
2022-12-11T12:24:43.772Z,15.67
2022-12-11T12:28:00.354Z,15.80
2022-12-11T12:31:21.914Z,17.07
2022-12-11T12:34:43.176Z,16.70
2022-12-11T12:37:58.567Z,16.10
2022-12-11T12:41:15.663Z,14.93
2022-12-11T12:44:21.741Z,16.47
2022-12-11T12:47:27.394Z,16.23
2022-12-11T12:50:39.451Z,16.30
2022-12-11T12:53:50.986Z,16.30
2022-12-11T12:56:54.309Z,15.10
2022-12-11T12:59:57.278Z,15.90
2022-12-11T13:03:03.064Z,16.70
2022-12-11T13:06:10.529Z,15.67
2022-12-11T13:09:18.987Z,15.70
2022-12-11T13:12:42.388Z,16.43
2022-12-11T13:15:45.358Z,15.57
2022-12-11T13:18:49.478Z,16.03
2022-12-11T13:21:59.836Z,17.57
2022-12-11T13:25:23.032Z,16.07
2022-12-11T13:28:51.008Z,15.70
2022-12-11T13:31:59.848Z,15.70
2022-12-11T13:35:08.645Z,15.63
2022-12-11T13:38:21.082Z,16.53
2022-12-11T13:41:26.050Z,16.27
2022-12-11T13:44:33.203Z,16.77
2022-12-11T13:47:37.381Z,15.60
2022-12-11T13:50:44.819Z,16.53
2022-12-11T13:53:48.447Z,18.07
2022-12-11T13:56:58.866Z,15.90
2022-12-11T14:00:02.045Z,16.60
2022-12-11T14:03:08.403Z,17.43
2022-12-11T14:06:18.355Z,16.17
2022-12-11T14:09:27.196Z,17.37
2022-12-11T14:12:32.795Z,17.47
2022-12-11T14:15:38.383Z,17.13
2022-12-11T14:18:42.513Z,17.20
2022-12-11T14:22:00.680Z,18.87
2022-12-11T14:25:20.342Z,21.67
2022-12-11T14:28:27.673Z,25.07
2022-12-11T14:31:36.001Z,19.50
2022-12-11T14:34:45.870Z,17.23
2022-12-11T14:37:48.980Z,18.93
2022-12-11T14:40:57.411Z,17.20
2022-12-11T14:44:05.607Z,17.17
2022-12-11T14:47:16.705Z,16.60
2022-12-11T14:50:24.244Z,17.53
2022-12-11T14:53:32.527Z,16.77
2022-12-11T14:56:35.623Z,15.60
2022-12-11T14:59:45.635Z,15.73
2022-12-11T15:02:59.886Z,18.30
2022-12-11T15:06:05.381Z,17.13
2022-12-11T15:09:21.263Z,18.27
2022-12-11T15:12:24.726Z,17.53
2022-12-11T15:15:31.474Z,16.70
2022-12-11T15:18:38.354Z,16.10
2022-12-11T15:21:41.779Z,16.77
2022-12-11T15:24:47.136Z,16.20
2022-12-11T15:27:55.490Z,17.00
2022-12-11T15:31:02.694Z,18.43
2022-12-11T15:34:24.187Z,17.73
2022-12-11T15:37:29.312Z,17.37
2022-12-11T15:40:32.408Z,17.70
2022-12-11T15:43:38.706Z,17.70
2022-12-11T15:46:42.985Z,17.70
2022-12-11T15:49:45.995Z,16.87
2022-12-11T15:52:49.909Z,18.23
2022-12-11T15:55:54.599Z,17.60
2022-12-11T15:59:04.746Z,17.10
2022-12-11T16:02:12.887Z,16.63
2022-12-11T16:05:16.499Z,18.00
2022-12-11T16:08:22.155Z,16.30
2022-12-11T16:11:25.236Z,28.20
2022-12-11T16:14:28.435Z,17.70
2022-12-11T16:17:32.737Z,18.20
2022-12-11T16:20:37.632Z,18.03
2022-12-11T16:23:40.621Z,18.00
2022-12-11T16:26:43.589Z,16.27
2022-12-11T16:29:47.475Z,15.43
2022-12-11T16:32:51.977Z,15.57
2022-12-11T16:35:55.039Z,16.23
2022-12-11T16:38:58.055Z,17.73
2022-12-11T16:42:01.229Z,17.17
2022-12-11T16:45:08.538Z,18.23
2022-12-11T16:48:13.274Z,18.87
2022-12-11T16:51:16.975Z,16.73
2022-12-11T16:54:20.694Z,17.93
2022-12-11T16:57:23.806Z,17.83
2022-12-11T17:00:27.228Z,16.30
2022-12-11T17:03:32.731Z,17.57
2022-12-11T17:06:35.829Z,17.07
2022-12-11T17:09:38.965Z,18.37
2022-12-11T17:12:41.939Z,17.87
2022-12-11T17:15:46.202Z,17.40
2022-12-11T17:18:50.493Z,18.00
2022-12-11T17:21:54.162Z,18.60
2022-12-11T17:24:57.350Z,19.63
2022-12-11T17:28:00.266Z,18.83
2022-12-11T17:31:06.024Z,18.70
2022-12-11T17:34:10.384Z,17.93
2022-12-11T17:37:13.356Z,18.83
2022-12-11T17:40:16.498Z,19.30
2022-12-11T17:43:19.588Z,19.23
2022-12-11T17:46:22.784Z,19.20
2022-12-11T17:49:27.493Z,18.13
2022-12-11T17:52:34.496Z,18.07
2022-12-11T17:55:42.611Z,18.33
2022-12-11T17:58:46.180Z,18.60
2022-12-11T18:01:49.213Z,19.97
2022-12-11T18:04:54.977Z,23.57
2022-12-11T18:07:58.406Z,19.87
2022-12-11T18:11:06.336Z,20.23
2022-12-11T18:14:15.269Z,18.50
2022-12-11T18:17:20.712Z,20.60
2022-12-11T18:20:25.546Z,19.90
2022-12-11T18:23:31.398Z,20.70
2022-12-11T18:26:34.368Z,21.93
2022-12-11T18:29:37.416Z,18.80
2022-12-11T18:32:40.694Z,19.70
2022-12-11T18:35:45.051Z,20.00
2022-12-11T18:38:48.856Z,21.37
2022-12-11T18:42:16.553Z,20.17
2022-12-11T18:45:15.535Z,19.63
2022-12-11T18:48:18.639Z,19.47
2022-12-11T18:51:26.502Z,20.10
2022-12-11T18:54:29.680Z,20.27
2022-12-11T18:57:33.264Z,18.03
2022-12-11T19:00:38.007Z,19.03
2022-12-11T19:03:41.384Z,20.70
2022-12-11T19:06:45.980Z,19.33
2022-12-11T19:09:48.945Z,20.73
2022-12-11T19:12:52.086Z,20.10
2022-12-11T19:15:55.490Z,19.23
2022-12-11T19:18:59.642Z,18.47
2022-12-11T19:22:04.986Z,22.30
2022-12-11T19:25:09.323Z,43.03
2022-12-11T19:28:13.126Z,20.97
2022-12-11T19:31:19.989Z,22.07
2022-12-11T19:34:23.587Z,20.97
2022-12-11T19:37:28.042Z,19.30
2022-12-11T19:40:32.074Z,18.03
2022-12-11T19:43:35.248Z,19.80
2022-12-11T19:47:05.392Z,18.37
2022-12-11T19:50:23.395Z,17.43
2022-12-11T19:53:40.876Z,19.60
2022-12-11T19:56:58.778Z,19.83
2022-12-11T20:00:39.258Z,19.87
2022-12-11T20:03:42.503Z,19.20
2022-12-11T20:06:47.399Z,19.20
2022-12-11T20:09:55.667Z,19.23
2022-12-11T20:13:03.724Z,19.67
2022-12-11T20:16:33.683Z,19.10
2022-12-11T20:19:58.812Z,19.70
2022-12-11T20:23:16.457Z,20.67
2022-12-11T20:26:40.073Z,19.53
2022-12-11T20:29:50.697Z,19.60
2022-12-11T20:33:15.099Z,19.97
2022-12-11T20:36:30.257Z,19.00
2022-12-11T20:39:45.224Z,19.47
2022-12-11T20:42:59.269Z,19.67
2022-12-11T20:46:02.504Z,18.17
2022-12-11T20:49:09.906Z,18.73
2022-12-11T20:52:13.557Z,20.43
2022-12-11T20:55:16.942Z,22.40
2022-12-11T20:58:22.168Z,21.43
2022-12-11T21:01:31.497Z,21.30
2022-12-11T21:04:34.499Z,23.00
2022-12-11T21:07:37.453Z,26.03
2022-12-11T21:10:43.001Z,22.40
2022-12-11T21:13:47.794Z,24.27
2022-12-11T21:16:50.969Z,44.97
2022-12-11T21:19:54.070Z,27.63
2022-12-11T21:22:57.647Z,33.63
2022-12-11T21:26:01.209Z,22.40
2022-12-11T21:29:05.898Z,22.17
2022-12-11T21:32:09.206Z,23.23
2022-12-11T21:35:13.285Z,29.60
2022-12-11T21:38:16.505Z,22.93
2022-12-11T21:41:23.927Z,23.80
2022-12-11T21:47:51.304Z,20.30
2022-12-11T21:50:54.603Z,21.67
2022-12-11T21:53:58.205Z,20.80
2022-12-11T21:57:01.275Z,21.20
2022-12-11T22:00:07.245Z,21.13
2022-12-11T22:03:15.300Z,22.07
2022-12-11T22:06:18.483Z,23.60
2022-12-11T22:09:23.458Z,21.17
2022-12-11T22:12:28.794Z,21.87
2022-12-11T22:15:34.019Z,21.77
2022-12-11T22:18:37.031Z,22.67
2022-12-11T22:21:40.625Z,24.93
2022-12-11T22:24:44.434Z,22.07
2022-12-11T22:27:47.498Z,20.67
2022-12-11T22:30:52.202Z,23.87
2022-12-11T22:33:56.378Z,22.27
2022-12-11T22:36:59.425Z,21.37
2022-12-11T22:40:03.818Z,22.20
2022-12-11T22:43:07.317Z,23.10
2022-12-11T22:46:18.716Z,22.00
2022-12-11T22:49:22.230Z,21.77
2022-12-11T22:52:25.523Z,21.73
2022-12-11T22:55:29.149Z,22.23
2022-12-11T22:58:32.468Z,22.33
2022-12-11T23:01:37.399Z,21.73
2022-12-11T23:04:40.401Z,22.47
2022-12-11T23:07:43.554Z,22.57
2022-12-11T23:10:46.988Z,21.70
2022-12-11T23:13:50.019Z,21.83
2022-12-11T23:16:54.518Z,21.43
2022-12-11T23:19:57.699Z,21.87
2022-12-11T23:23:00.782Z,22.10
2022-12-11T23:26:04.349Z,23.13
2022-12-11T23:29:08.246Z,22.43
2022-12-11T23:32:14.207Z,21.63
2022-12-11T23:35:17.267Z,20.97
2022-12-11T23:38:20.292Z,21.57
2022-12-11T23:41:26.226Z,22.90
2022-12-11T23:44:29.220Z,22.60
2022-12-11T23:47:36.236Z,22.07
2022-12-11T23:50:39.938Z,21.90
2022-12-11T23:53:43.502Z,21.70
2022-12-11T23:56:46.447Z,23.30
2022-12-11T23:59:49.557Z,22.47
